»·PEaware :: DAL877 KSNA-KSFO

DAL877 :: KSNA-KSFO

FLIGHT INFORMATION

Flight Status: Arrived
Operator:
Delta Air Lines
More flights by this operator :: More flights under this callsign
Pilot: Anthony T. (15846)
Aircraft: MCDONNELL-DOUGLAS MD-82
(MD82)
More flights by this aircraft type
Origin: KSNA John Wayne-Orange Co
United States
Destination: KSFO San Francisco Intl
United States
More flights between these airports :: More routes between these airports
Route: +HHERO2 IKAYE RIZIN SPLNT STOKD SERFR SERFR3
File this flight plan on PilotEdge
Remarks:
Altitude:
(Current/Filed)
28,000ft
Speed:
(Current/Filed)
315kts
Departed: 06-May-18 07:24 PM
Arrived: 06-May-18 08:23 PM
Distance/Time
Traveled:
323nm/0:59
Distance/Time
To Go:
Arrived

Flight Plot

Page will automatically refresh every two minutes.

Flight plan parsing failed; only flown route is shown


Map Options




Map Legend


Flown Route
Filed Route
Departure Airport
Arrival Airport
Navaid (VOR, NDB)
Fix

Horizontal Profiles

Position Reports

Time Latitude Longitude Heading Altitude Ground
Speed
06-May-18 19:02 33.674321 -117.872090 118 63ft 0kts
06-May-18 19:03 33.671434 -117.873678 208 63ft 0kts
06-May-18 19:04 33.675081 -117.865184 117 63ft 0kts
06-May-18 19:05 33.675081 -117.865184 117 63ft 0kts
06-May-18 19:06 33.675081 -117.865184 117 63ft 0kts
06-May-18 19:07 33.675081 -117.865184 117 63ft 0kts
06-May-18 19:08 33.675081 -117.865184 117 63ft 0kts
06-May-18 19:09 33.675081 -117.865184 117 63ft 0kts
06-May-18 19:11 33.675081 -117.865184 117 63ft 0kts
06-May-18 19:12 33.675081 -117.865184 117 63ft 0kts
06-May-18 19:13 33.675081 -117.865184 117 63ft 0kts
06-May-18 19:14 33.675081 -117.865184 117 63ft 0kts
06-May-18 19:15 33.675081 -117.865184 117 63ft 0kts
06-May-18 19:16 33.675081 -117.865184 117 63ft 0kts
06-May-18 19:17 33.675161 -117.865500 90 63ft 4kts
06-May-18 19:18 33.674954 -117.865855 25 63ft 0kts
06-May-18 19:19 33.674954 -117.865855 25 63ft 0kts
06-May-18 19:20 33.676181 -117.865186 27 63ft 14kts
06-May-18 19:21 33.678746 -117.863560 28 63ft 13kts
06-May-18 19:22 33.680570 -117.862985 312 63ft 12kts
06-May-18 19:23 33.681109 -117.864076 297 63ft 0kts
06-May-18 19:24 33.663361 -117.876482 206 259ft 204kts
06-May-18 19:25 33.601328 -117.894663 188 5035ft 262kts
06-May-18 19:26 33.539314 -117.937447 221 9614ft 274kts
06-May-18 19:27 33.479356 -118.008485 238 11776ft 333kts
06-May-18 19:28 33.430096 -118.105058 238 14029ft 347kts
06-May-18 19:29 33.424897 -118.217614 278 14075ft 351kts
06-May-18 19:30 33.452888 -118.328580 292 15156ft 357kts
06-May-18 19:31 33.498966 -118.436304 295 17165ft 369kts
06-May-18 19:32 33.568391 -118.525870 321 19154ft 386kts
06-May-18 19:33 33.657147 -118.601366 322 21154ft 397kts
06-May-18 19:34 33.747853 -118.677347 321 23635ft 408kts
06-May-18 19:35 33.842289 -118.756559 321 26663ft 425kts
06-May-18 19:36 33.940397 -118.839070 321 28044ft 439kts
06-May-18 19:37 34.043682 -118.926184 321 28054ft 456kts
06-May-18 19:38 34.141752 -119.017776 304 28075ft 443kts
06-May-18 19:39 34.210247 -119.140660 298 28045ft 441kts
06-May-18 19:40 34.274741 -119.265879 298 28043ft 441kts
06-May-18 19:41 34.339126 -119.391525 298 28042ft 441kts
06-May-18 19:42 34.403631 -119.517417 301 28036ft 442kts
06-May-18 19:43 34.487945 -119.626780 311 28041ft 447kts
06-May-18 19:44 34.574693 -119.733787 310 28047ft 446kts
06-May-18 19:45 34.661696 -119.841326 310 28062ft 446kts
06-May-18 19:46 34.748294 -119.948711 310 28088ft 446kts
06-May-18 19:47 34.834769 -120.056274 310 28102ft 446kts
06-May-18 19:48 34.921318 -120.164285 310 28106ft 445kts
06-May-18 19:49 35.007231 -120.271846 310 28109ft 445kts
06-May-18 19:50 35.093707 -120.379612 314 28100ft 446kts
06-May-18 19:51 35.184448 -120.481154 314 28091ft 446kts
06-May-18 19:52 35.275191 -120.583071 314 28086ft 446kts
06-May-18 19:53 35.366161 -120.685567 313 28092ft 446kts
06-May-18 19:54 35.457170 -120.788430 313 28083ft 447kts
06-May-18 19:55 35.554395 -120.883878 319 28074ft 450kts
06-May-18 19:56 35.653667 -120.976175 319 28073ft 451kts
06-May-18 19:57 35.753536 -121.069240 318 28073ft 452kts
06-May-18 19:58 35.853759 -121.162967 318 28074ft 454kts
06-May-18 19:59 35.954177 -121.257207 318 28078ft 455kts
06-May-18 20:00 36.054368 -121.351517 318 28098ft 453kts
06-May-18 20:01 36.161031 -121.437011 323 25693ft 476kts
06-May-18 20:02 36.265152 -121.518271 323 23705ft 431kts
06-May-18 20:03 36.364182 -121.595999 324 21169ft 416kts
06-May-18 20:04 36.459030 -121.670578 323 20166ft 405kts
06-May-18 20:05 36.554700 -121.746087 323 20158ft 410kts
06-May-18 20:06 36.650563 -121.821989 323 20153ft 410kts
06-May-18 20:07 36.744458 -121.891363 340 18370ft 383kts
06-May-18 20:08 36.834319 -121.919901 343 15804ft 315kts
06-May-18 20:09 36.915281 -121.942742 344 12774ft 283kts
06-May-18 20:10 36.987890 -121.967138 340 9817ft 279kts
06-May-18 20:11 37.063480 -121.996572 341 8142ft 276kts
06-May-18 20:12 37.128715 -122.022012 340 8138ft 233kts
06-May-18 20:13 37.189969 -122.046023 340 8150ft 235kts
06-May-18 20:14 37.251000 -122.069958 340 8153ft 233kts
06-May-18 20:15 37.305354 -122.091375 340 7920ft 239kts
06-May-18 20:16 37.369621 -122.115013 342 6198ft 255kts
06-May-18 20:17 37.434588 -122.138055 342 4618ft 260kts
06-May-18 20:18 37.502940 -122.162345 343 3180ft 255kts
06-May-18 20:19 37.550203 -122.210983 296 2373ft 198kts
06-May-18 20:20 37.573948 -122.267629 298 1910ft 165kts
06-May-18 20:21 37.592482 -122.312101 296 876ft 137kts
06-May-18 20:22 37.609823 -122.353917 296 172ft 130kts
06-May-18 20:23 37.619863 -122.378880 244 28ft 19kts

Navigation Log

Ident Type
Flight plan parsing failed, navigation log unavailable